Thursday, April 2, 2015, 3:47 AM EDT

KDYL, Doylestown Airport

Location: Doylestown, PA, United States Lat: 40.333
Local Time: 3:47 AM EDT ( 7:47 GMT) Lon: -75.117
Time Zone: US/Eastern Elev: 393 ft

Show me the last for .
Show Decoded

2015-04-02 02:54 METAR KDYL 020654Z AUTO 00000KT 10SM CLR M01/M04 A3022 RMK AO2 SLP238 T10111044
                 =
2015-04-02 01:54 METAR KDYL 020554Z AUTO 00000KT 10SM CLR M01/M04 A3021 RMK AO2 SLP235 T10061044
                 10067 21006 50001 =
2015-04-02 00:54 METAR KDYL 020454Z AUTO 00000KT 10SM CLR 00/M04 A3022 RMK AO2 SLP239 T00001039
                 401111033 =
2015-04-01 23:54 METAR KDYL 020354Z AUTO VRB03KT 10SM CLR 01/M04 A3021 RMK AO2 SLP234 T00061039 =
2015-04-01 22:54 METAR KDYL 020254Z AUTO 00000KT 10SM CLR 01/M04 A3021 RMK AO2 SLP235 T00111039
                 51015 =
2015-04-01 21:54 METAR KDYL 020154Z AUTO 00000KT 10SM CLR 05/M05 A3019 RMK AO2 SLP230 T00501050 =
2015-04-01 20:54 METAR KDYL 020054Z AUTO 00000KT 10SM CLR 05/M04 A3019 RMK AO2 SLP229 T00501044 =
2015-04-01 19:54 METAR KDYL 012354Z AUTO 00000KT 10SM CLR 07/M04 A3016 RMK AO2 SLP220 T00671044
                 10111 20067 53021 =
2015-04-01 18:54 METAR KDYL 012254Z AUTO 33010G14KT 10SM CLR 09/M04 A3014 RMK AO2 SLP211
                 T00891044 =
2015-04-01 17:54 METAR KDYL 012154Z AUTO 33011G18KT 10SM CLR 10/M04 A3012 RMK AO2 SLP205
                 T01001044 =
2015-04-01 16:54 METAR KDYL 012054Z AUTO 30010G16KT 10SM CLR 11/M04 A3010 RMK AO2 SLP197
                 T01111044 55000 =
2015-04-01 15:54 METAR KDYL 011954Z AUTO 31010G17KT 10SM CLR 11/M04 A3010 RMK AO2 SLP196
                 T01061044 =
2015-04-01 14:54 METAR KDYL 011854Z AUTO 31011G18KT 10SM CLR 10/M04 A3009 RMK AO2 SLP194
                 T01001044 =
2015-04-01 13:54 METAR KDYL 011754Z AUTO 30008G15KT 280V350 10SM CLR 09/M04 A3010 RMK AO2 SLP197
                 T00891044 10094 21011 50000 =
2015-04-01 12:54 METAR KDYL 011654Z AUTO 32008G17KT 10SM CLR 08/M06 A3011 RMK AO2 SLP201
                 T00781061 =
2015-04-01 11:54 METAR KDYL 011554Z AUTO 31008KT 10SM CLR 07/M03 A3010 RMK AO2 SLP199 T00721033 =
2015-04-01 10:54 METAR KDYL 011454Z AUTO 33010G15KT 10SM CLR 06/M03 A3010 RMK AO2 SLP198
                 T00561033 51020 =
2015-04-01 09:54 METAR KDYL 011354Z AUTO 32007KT 10SM CLR 04/M03 A3009 RMK AO2 SLP194 T00391033 =
2015-04-01 06:54 METAR KDYL 011054Z AUTO 00000KT 10SM CLR M03/M06 A3000 RMK AO2 SLP165 T10281056
                 =
2015-04-01 04:54 METAR KDYL 010854Z AUTO 35006KT 10SM CLR M01/M05 A2992 RMK AO2 SLP137 T10061050
                 53014 =
2015-04-01 03:54 METAR KDYL 010754Z AUTO 35005KT 10SM CLR M01/M04 A2990 RMK AO2 SLP132 T10061039
                 =

Support USWX by starting your Amazon purchase here.